createdAt,value
2023-05-05T00:00:55.349Z,101904.84
2023-05-05T00:03:24.142Z,101916.94
2023-05-05T00:05:52.522Z,101902.22
2023-05-05T00:08:20.191Z,101909.22
2023-05-05T00:10:48.713Z,101910.91
2023-05-05T00:13:16.329Z,101901.41
2023-05-05T00:15:46.073Z,101904.03
2023-05-05T00:18:16.739Z,101909.19
2023-05-05T00:20:44.609Z,101901.38
2023-05-05T00:23:12.494Z,101899.78
2023-05-05T00:25:40.250Z,101896.19
2023-05-05T00:28:07.864Z,101893.56
2023-05-05T00:30:35.473Z,101895.44
2023-05-05T00:33:03.137Z,101887.59
2023-05-05T00:35:32.242Z,101885.94
2023-05-05T00:37:59.861Z,101885.97
2023-05-05T00:40:27.703Z,101884.19
2023-05-05T00:42:55.404Z,101876.38
2023-05-05T00:45:23.121Z,101879.78
2023-05-05T00:47:53.353Z,101885.81
2023-05-05T00:50:24.607Z,101870.38
2023-05-05T00:52:55.617Z,101873.00
2023-05-05T00:55:23.549Z,101867.00
2023-05-05T00:57:51.349Z,101882.50
2023-05-05T01:00:19.012Z,101854.94
2023-05-05T01:02:46.813Z,101873.94
2023-05-05T01:05:16.068Z,101868.72
2023-05-05T01:08:04.790Z,101870.47
2023-05-05T01:10:39.339Z,101869.56
2023-05-05T01:13:21.521Z,101862.69
2023-05-05T01:15:53.486Z,101863.56
2023-05-05T01:18:30.766Z,101864.41
2023-05-05T01:21:03.192Z,101861.84
2023-05-05T01:23:48.563Z,101838.56
2023-05-05T01:26:34.306Z,101847.19
2023-05-05T01:29:15.865Z,101862.69
2023-05-05T01:31:51.595Z,101860.13
2023-05-05T01:34:25.569Z,101858.38
2023-05-05T01:36:58.774Z,101850.63
2023-05-05T01:39:32.466Z,101844.59
2023-05-05T01:42:05.829Z,101849.75
2023-05-05T01:44:36.137Z,101850.66
2023-05-05T01:47:07.305Z,101850.63
2023-05-05T01:49:37.314Z,101848.03
2023-05-05T01:52:07.019Z,101855.78
2023-05-05T01:54:36.029Z,101842.00
2023-05-05T01:57:05.841Z,101844.59
2023-05-05T01:59:34.905Z,101838.56
2023-05-05T02:02:05.042Z,101844.59
2023-05-05T02:04:34.570Z,101845.44
2023-05-05T02:07:04.183Z,101845.47
2023-05-05T02:09:33.095Z,101848.94
2023-05-05T02:12:02.870Z,101843.75
2023-05-05T02:14:31.516Z,101822.19
2023-05-05T02:16:59.511Z,101818.75
2023-05-05T02:19:31.546Z,101828.22
2023-05-05T02:21:59.473Z,101830.78
2023-05-05T02:24:27.447Z,101834.25
2023-05-05T02:26:57.231Z,101829.09
2023-05-05T02:29:31.783Z,101836.81
2023-05-05T02:32:04.497Z,101831.59
2023-05-05T02:34:36.900Z,101828.22
2023-05-05T02:37:08.180Z,101815.22
2023-05-05T02:39:43.536Z,101829.06
2023-05-05T02:42:14.202Z,101835.13
2023-05-05T02:44:43.574Z,101819.59
2023-05-05T02:47:11.252Z,101818.69
2023-05-05T02:49:40.277Z,101823.84
2023-05-05T02:52:07.905Z,101827.38
2023-05-05T02:54:35.585Z,101804.94
2023-05-05T02:57:03.989Z,101828.22
2023-05-05T02:59:37.649Z,101773.78
2023-05-05T03:02:15.597Z,101809.25
2023-05-05T03:04:50.164Z,101798.91
2023-05-05T03:07:24.704Z,101782.44
2023-05-05T03:09:59.051Z,101804.94
2023-05-05T03:12:31.904Z,101804.94
2023-05-05T03:15:01.865Z,101787.63
2023-05-05T03:17:32.067Z,101795.44
2023-05-05T03:20:03.861Z,101785.09
2023-05-05T03:22:31.872Z,101797.19
2023-05-05T03:24:59.481Z,101786.84
2023-05-05T03:27:27.107Z,101780.75
2023-05-05T03:29:54.804Z,101785.06
2023-05-05T03:32:23.660Z,101784.19
2023-05-05T03:34:51.498Z,101796.31
2023-05-05T03:37:20.504Z,101783.41
2023-05-05T03:39:48.136Z,101781.63
2023-05-05T03:42:15.767Z,101791.09
2023-05-05T03:44:43.527Z,101791.97
2023-05-05T03:47:11.190Z,101775.56
2023-05-05T03:49:38.835Z,101792.03
2023-05-05T03:52:06.541Z,101785.06
2023-05-05T03:54:35.517Z,101795.44
2023-05-05T03:57:03.948Z,101781.63
2023-05-05T03:59:31.816Z,101782.50
2023-05-05T04:01:59.450Z,101782.50
2023-05-05T04:04:27.271Z,101774.78
2023-05-05T04:06:55.004Z,101782.50
2023-05-05T04:09:22.633Z,101795.44
2023-05-05T04:11:51.677Z,101789.38
2023-05-05T04:14:19.308Z,101773.00
2023-05-05T04:16:46.957Z,101775.63
2023-05-05T04:19:14.633Z,101775.66
2023-05-05T04:21:42.376Z,101775.66
2023-05-05T04:24:10.308Z,101776.50
2023-05-05T04:26:38.093Z,101765.28
2023-05-05T04:29:07.058Z,101773.06
2023-05-05T04:31:34.698Z,101765.31
2023-05-05T04:34:02.418Z,101759.25
2023-05-05T04:36:30.092Z,101765.31
2023-05-05T04:38:58.058Z,101779.09
2023-05-05T04:41:26.467Z,101772.16
2023-05-05T04:43:55.454Z,101773.06
2023-05-05T04:46:25.915Z,101785.13
2023-05-05T04:48:53.575Z,101782.53
2023-05-05T04:51:21.232Z,101774.78
2023-05-05T04:53:48.843Z,101775.56
2023-05-05T04:56:16.497Z,101778.19
2023-05-05T04:58:44.143Z,101772.06
2023-05-05T05:01:11.762Z,101768.19
2023-05-05T05:03:40.945Z,101759.56
2023-05-05T05:06:08.763Z,101759.50
2023-05-05T05:08:36.548Z,101769.25
2023-05-05T05:11:04.217Z,101771.72
2023-05-05T05:13:31.944Z,101775.91
2023-05-05T05:15:59.611Z,101767.84
2023-05-05T05:18:27.338Z,101778.28
2023-05-05T05:20:56.575Z,101760.50
2023-05-05T05:23:24.306Z,101763.59
2023-05-05T05:25:51.961Z,101774.84
2023-05-05T05:28:19.562Z,101759.59
2023-05-05T05:30:47.309Z,101768.31
2023-05-05T05:33:15.050Z,101777.91
2023-05-05T05:35:42.683Z,101773.50
2023-05-05T05:38:11.680Z,101773.91
2023-05-05T05:40:39.328Z,101769.94
2023-05-05T05:43:06.936Z,101761.44
2023-05-05T05:45:34.549Z,101761.84
2023-05-05T05:48:02.217Z,101757.00
2023-05-05T05:50:29.903Z,101756.41
2023-05-05T05:52:57.565Z,101725.09
2023-05-05T05:55:26.583Z,101740.66
2023-05-05T05:57:54.240Z,101747.97
2023-05-05T06:00:21.897Z,101749.50
2023-05-05T06:02:51.342Z,101754.53
2023-05-05T06:05:19.213Z,101750.31
2023-05-05T06:07:46.856Z,101741.66
2023-05-05T06:10:26.820Z,101737.97
2023-05-05T06:12:57.251Z,101735.91
2023-05-05T06:15:25.796Z,101732.72
2023-05-05T06:17:53.489Z,101726.19
2023-05-05T06:20:21.157Z,101730.28
2023-05-05T06:22:48.785Z,101722.66
2023-05-05T06:25:16.632Z,101706.25
2023-05-05T06:27:44.225Z,101694.81
2023-05-05T06:30:14.619Z,101688.72
2023-05-05T06:32:42.266Z,101701.84
2023-05-05T06:35:10.969Z,101698.22
2023-05-05T06:37:38.581Z,101715.16
2023-05-05T06:40:07.878Z,101717.25
2023-05-05T06:42:35.939Z,101725.78
2023-05-05T06:45:03.636Z,101710.03
2023-05-05T06:47:32.636Z,101708.22
2023-05-05T06:50:00.287Z,101709.00
2023-05-05T06:52:28.184Z,101724.53
2023-05-05T06:54:56.165Z,101743.78
2023-05-05T06:57:23.837Z,101750.34
2023-05-05T06:59:51.506Z,101742.84
2023-05-05T07:02:19.130Z,101748.59
2023-05-05T07:04:48.122Z,101745.63
2023-05-05T07:07:16.721Z,101752.63
2023-05-05T07:09:44.990Z,101751.38
2023-05-05T07:12:12.644Z,101742.53
2023-05-05T07:14:40.855Z,101747.78
2023-05-05T07:17:08.482Z,101758.81
2023-05-05T07:19:38.948Z,101761.06
2023-05-05T07:22:08.250Z,101767.91
2023-05-05T07:24:36.002Z,101764.38
2023-05-05T07:27:03.699Z,101768.06
2023-05-05T07:29:31.549Z,101768.53
2023-05-05T07:32:00.091Z,101734.88
2023-05-05T07:34:27.818Z,101767.09
2023-05-05T07:36:56.381Z,101781.75
2023-05-05T07:39:25.395Z,101778.81
2023-05-05T07:41:52.998Z,101791.34
2023-05-05T07:44:20.640Z,101791.09
2023-05-05T07:46:48.418Z,101798.81
2023-05-05T07:49:16.407Z,101794.91
2023-05-05T07:51:44.891Z,101797.47
2023-05-05T07:54:12.568Z,101810.63
2023-05-05T07:56:41.538Z,101811.44
2023-05-05T07:59:09.286Z,101815.91
2023-05-05T08:01:36.974Z,101815.47
2023-05-05T08:04:04.815Z,101814.41
2023-05-05T08:06:32.885Z,101813.41
2023-05-05T08:09:01.840Z,101815.25
2023-05-05T08:11:29.831Z,101817.28
2023-05-05T08:13:59.803Z,101807.28
2023-05-05T08:16:27.763Z,101804.22
2023-05-05T08:18:55.626Z,101806.75
2023-05-05T08:21:32.185Z,101797.22
2023-05-05T08:23:59.945Z,101783.28
2023-05-05T08:26:27.705Z,101777.06
2023-05-05T08:29:00.585Z,101783.84
2023-05-05T08:31:30.595Z,101777.34
2023-05-05T08:34:08.232Z,101754.06
2023-05-05T08:36:35.874Z,101760.78
2023-05-05T08:39:03.634Z,101742.69
2023-05-05T08:41:32.005Z,101766.75
2023-05-05T08:43:59.747Z,101764.09
2023-05-05T08:46:30.685Z,101751.38
2023-05-05T08:48:59.080Z,101754.81
2023-05-05T08:51:31.050Z,101754.22
2023-05-05T08:54:03.047Z,101749.97
2023-05-05T08:56:34.252Z,101753.59
2023-05-05T08:59:03.528Z,101745.22
2023-05-05T09:01:33.851Z,101728.16
2023-05-05T09:04:01.657Z,101726.72
2023-05-05T09:06:32.146Z,101717.34
2023-05-05T09:08:59.881Z,101727.00
2023-05-05T09:11:28.020Z,101710.91
2023-05-05T09:13:56.418Z,101722.66
2023-05-05T09:16:24.155Z,101707.75
2023-05-05T09:19:02.237Z,101720.19
2023-05-05T09:21:30.134Z,101714.69
2023-05-05T09:24:09.628Z,101717.91
2023-05-05T09:26:38.998Z,101725.72
2023-05-05T09:29:06.815Z,101724.34
2023-05-05T09:31:36.429Z,101718.78
2023-05-05T09:34:15.492Z,101728.09
2023-05-05T09:36:44.621Z,101732.47
2023-05-05T09:39:12.284Z,101728.66
2023-05-05T09:41:40.989Z,101739.00
2023-05-05T09:44:09.109Z,101732.75
2023-05-05T09:46:36.839Z,101712.13
2023-05-05T09:49:23.479Z,101713.66
2023-05-05T09:51:52.772Z,101704.31
2023-05-05T09:54:24.782Z,101708.16
2023-05-05T09:56:52.569Z,101703.31
2023-05-05T09:59:21.168Z,101704.78
2023-05-05T10:01:49.708Z,101697.03
2023-05-05T10:04:29.923Z,101676.41
2023-05-05T10:06:58.909Z,101719.25
2023-05-05T10:09:28.675Z,101701.88
2023-05-05T10:11:59.000Z,101698.81
2023-05-05T10:14:28.339Z,101682.69
2023-05-05T10:16:56.569Z,101719.53
2023-05-05T10:19:25.338Z,101727.50
2023-05-05T10:21:55.556Z,101704.28
2023-05-05T10:24:35.407Z,101724.44
2023-05-05T10:27:09.160Z,101709.69
2023-05-05T10:29:45.786Z,101720.94
2023-05-05T10:32:47.251Z,101709.44
2023-05-05T10:35:09.947Z,101709.41
2023-05-05T10:37:39.978Z,101710.22
2023-05-05T10:40:10.541Z,101712.59
2023-05-05T10:42:40.445Z,101698.00
2023-05-05T10:45:08.936Z,101705.75
2023-05-05T10:47:38.241Z,101697.16
2023-05-05T10:50:12.879Z,101703.38
2023-05-05T10:52:54.856Z,101668.22
2023-05-05T10:55:33.669Z,101700.09
2023-05-05T10:58:01.691Z,101686.53
2023-05-05T11:00:51.928Z,101695.88
2023-05-05T11:03:23.592Z,101685.91
2023-05-05T11:06:18.171Z,101670.81
2023-05-05T11:08:47.320Z,101677.56
2023-05-05T11:11:15.060Z,101681.16
2023-05-05T11:13:42.790Z,101684.53
2023-05-05T11:16:44.838Z,101676.78
2023-05-05T11:19:46.742Z,101685.00
2023-05-05T11:22:15.355Z,101689.19
2023-05-05T11:24:44.868Z,101683.78
2023-05-05T11:27:12.592Z,101684.34
2023-05-05T11:30:08.662Z,101701.94
2023-05-05T11:32:36.994Z,101686.41
2023-05-05T11:35:06.146Z,101686.84
2023-05-05T11:37:34.609Z,101663.28
2023-05-05T11:40:16.257Z,101669.25
2023-05-05T11:42:43.921Z,101666.03
2023-05-05T11:45:22.637Z,101671.47
2023-05-05T11:47:50.958Z,101665.69
2023-05-05T11:50:21.379Z,101659.31
2023-05-05T11:52:49.162Z,101664.00
2023-05-05T11:55:24.469Z,101662.03
2023-05-05T11:57:52.253Z,101656.44
2023-05-05T12:00:20.538Z,101659.66
2023-05-05T12:02:56.521Z,101650.72
2023-05-05T12:05:24.333Z,101639.25
2023-05-05T12:07:58.508Z,101638.88
2023-05-05T12:10:28.026Z,101633.63
2023-05-05T12:12:55.955Z,101621.09
2023-05-05T12:15:31.615Z,101622.47
2023-05-05T12:18:02.074Z,101618.44
2023-05-05T12:20:32.002Z,101624.00
2023-05-05T12:23:04.546Z,101630.19
2023-05-05T12:25:38.424Z,101615.06
2023-05-05T12:28:07.414Z,101621.75
2023-05-05T12:30:36.001Z,101628.75
2023-05-05T12:33:04.739Z,101613.34
2023-05-05T12:35:33.234Z,101622.53
2023-05-05T12:38:00.963Z,101640.06
2023-05-05T12:40:47.641Z,101637.84
2023-05-05T12:43:26.590Z,101636.44
2023-05-05T12:46:05.582Z,101628.81
2023-05-05T12:48:35.870Z,101639.53
2023-05-05T12:51:14.562Z,101632.91
2023-05-05T12:53:42.237Z,101642.25
2023-05-05T12:56:40.992Z,101648.69
2023-05-05T12:59:10.927Z,101647.06
2023-05-05T13:01:49.602Z,101645.28
2023-05-05T13:04:18.090Z,101659.84
2023-05-05T13:06:47.388Z,101646.97
2023-05-05T13:09:25.191Z,101655.75
2023-05-05T13:11:54.803Z,101634.19
2023-05-05T13:14:23.192Z,101641.09
2023-05-05T13:16:50.895Z,101634.63
2023-05-05T13:19:18.506Z,101650.72
2023-05-05T13:21:46.197Z,101647.97
2023-05-05T13:24:26.153Z,101628.44
2023-05-05T13:27:00.429Z,101628.00
2023-05-05T13:29:31.087Z,101617.53
2023-05-05T13:31:59.440Z,101622.56
2023-05-05T13:34:27.142Z,101613.66
2023-05-05T13:36:54.996Z,101605.56
2023-05-05T13:39:22.736Z,101600.00
2023-05-05T13:41:50.547Z,101584.28
2023-05-05T13:44:19.561Z,101600.13
2023-05-05T13:46:47.458Z,101585.06
2023-05-05T13:49:15.124Z,101583.72
2023-05-05T13:51:42.983Z,101571.91
2023-05-05T13:54:11.015Z,101566.69
2023-05-05T13:56:38.699Z,101574.63
2023-05-05T13:59:06.331Z,101573.75
2023-05-05T14:01:35.374Z,101566.03
2023-05-05T14:04:05.353Z,101569.53
2023-05-05T14:06:33.492Z,101577.34
2023-05-05T14:09:01.423Z,101571.41
2023-05-05T14:11:29.147Z,101573.34
2023-05-05T14:13:56.804Z,101569.59
2023-05-05T14:16:24.463Z,101578.59
2023-05-05T14:18:53.503Z,101579.59
2023-05-05T14:21:21.149Z,101575.56
2023-05-05T14:23:48.777Z,101571.81
2023-05-05T14:26:16.644Z,101572.81
2023-05-05T14:28:44.507Z,101577.66
2023-05-05T14:31:12.182Z,101565.06
2023-05-05T14:33:39.802Z,101563.81
2023-05-05T14:36:09.788Z,101562.69
2023-05-05T14:38:37.455Z,101558.75
2023-05-05T14:41:05.595Z,101567.00
2023-05-05T14:43:33.200Z,101573.63
2023-05-05T14:46:06.393Z,101571.50
2023-05-05T14:48:34.722Z,101580.06
2023-05-05T14:51:02.598Z,101570.69
2023-05-05T14:53:31.704Z,101584.25
2023-05-05T14:55:59.496Z,101581.91
2023-05-05T14:58:27.113Z,101588.91
2023-05-05T15:00:54.793Z,101586.75
2023-05-05T15:03:22.563Z,101577.53
2023-05-05T15:05:50.254Z,101585.13
2023-05-05T15:08:19.309Z,101573.25
2023-05-05T15:10:48.447Z,101564.47
2023-05-05T15:13:17.184Z,101555.88
2023-05-05T15:15:45.079Z,101541.50
2023-05-05T15:18:12.888Z,101528.19
2023-05-05T15:20:40.532Z,101535.09
2023-05-05T15:23:08.225Z,101542.56
2023-05-05T15:25:36.496Z,101521.75
2023-05-05T15:28:05.611Z,101541.28
2023-05-05T15:30:33.467Z,101535.38
2023-05-05T15:33:01.251Z,101548.41
2023-05-05T15:35:28.953Z,101531.28
2023-05-05T15:37:56.616Z,101533.03
2023-05-05T15:40:24.405Z,101519.00
2023-05-05T15:42:52.139Z,101524.25
2023-05-05T15:45:21.165Z,101536.78
2023-05-05T15:47:50.452Z,101526.66
2023-05-05T15:50:18.180Z,101524.88
2023-05-05T15:52:46.695Z,101514.53
2023-05-05T15:55:15.233Z,101522.44
2023-05-05T15:57:42.935Z,101508.00
2023-05-05T16:00:11.533Z,101528.53
2023-05-05T16:02:40.576Z,101509.56
2023-05-05T16:05:09.162Z,101513.38
2023-05-05T16:07:36.979Z,101509.06
2023-05-05T16:10:04.938Z,101502.66
2023-05-05T16:12:32.661Z,101512.56
2023-05-05T16:15:00.357Z,101510.53
2023-05-05T16:17:28.114Z,101490.91
2023-05-05T16:19:57.155Z,101502.19
2023-05-05T16:22:24.776Z,101507.47
2023-05-05T16:24:52.417Z,101521.94
2023-05-05T16:27:20.237Z,101523.28
2023-05-05T16:29:47.921Z,101523.06
2023-05-05T16:32:15.509Z,101515.34
2023-05-05T16:34:43.210Z,101515.97
2023-05-05T16:37:12.700Z,101528.00
2023-05-05T16:39:41.191Z,101529.19
2023-05-05T16:42:08.974Z,101529.78
2023-05-05T16:44:36.648Z,101542.34
2023-05-05T16:47:04.394Z,101534.41
2023-05-05T16:49:32.022Z,101534.63
2023-05-05T16:52:02.582Z,101545.75
2023-05-05T16:54:31.539Z,101542.06
2023-05-05T16:56:59.264Z,101543.81
2023-05-05T16:59:26.877Z,101543.88
2023-05-05T17:01:54.527Z,101562.63
2023-05-05T17:04:22.255Z,101560.88
2023-05-05T17:06:49.953Z,101557.72
2023-05-05T17:09:17.619Z,101559.00
2023-05-05T17:11:46.633Z,101569.78
2023-05-05T17:14:14.461Z,101552.69
2023-05-05T17:16:42.221Z,101565.66
2023-05-05T17:19:10.003Z,101515.03
2023-05-05T17:21:37.698Z,101556.03
2023-05-05T17:24:06.285Z,101554.69
2023-05-05T17:26:33.946Z,101562.41
2023-05-05T17:29:02.879Z,101553.25
2023-05-05T17:31:30.597Z,101561.00
2023-05-05T17:33:58.550Z,101552.09
2023-05-05T17:36:26.322Z,101569.66
2023-05-05T17:38:53.952Z,101563.38
2023-05-05T17:41:21.891Z,101564.56
2023-05-05T17:43:49.552Z,101580.97
2023-05-05T17:46:18.541Z,101580.38
2023-05-05T17:48:46.209Z,101589.66
2023-05-05T17:51:13.868Z,101588.28
2023-05-05T17:53:41.507Z,101589.59
2023-05-05T17:56:09.329Z,101593.28
2023-05-05T17:58:37.030Z,101599.06
2023-05-05T18:01:04.796Z,101608.91
2023-05-05T18:03:34.224Z,101599.50
2023-05-05T18:06:02.376Z,101609.09
2023-05-05T18:08:30.065Z,101604.84
2023-05-05T18:10:57.742Z,101614.44
2023-05-05T18:13:25.369Z,101612.94
2023-05-05T18:15:53.009Z,101627.13
2023-05-05T18:18:20.720Z,101620.06
2023-05-05T18:20:49.768Z,101632.47
2023-05-05T18:23:17.566Z,101581.53
2023-05-05T18:25:45.206Z,101642.16
2023-05-05T18:28:12.983Z,101640.25
2023-05-05T18:30:40.688Z,101656.63
2023-05-05T18:33:08.343Z,101638.28
2023-05-05T18:35:36.058Z,101662.00
2023-05-05T18:38:05.380Z,101667.78
2023-05-05T18:40:33.117Z,101665.41
2023-05-05T18:43:00.769Z,101666.72
2023-05-05T18:45:28.429Z,101673.47
2023-05-05T18:47:56.345Z,101620.84
2023-05-05T18:50:24.085Z,101685.22
2023-05-05T18:52:51.786Z,101675.81
2023-05-05T18:55:21.328Z,101669.38
2023-05-05T18:57:48.944Z,101675.44
2023-05-05T19:00:19.747Z,101676.44
2023-05-05T19:02:47.535Z,101681.00
2023-05-05T19:05:15.203Z,101662.75
2023-05-05T19:07:42.873Z,101670.38
2023-05-05T19:10:11.788Z,101670.44
2023-05-05T19:12:40.799Z,101678.91
2023-05-05T19:15:09.801Z,101676.56
2023-05-05T19:17:37.772Z,101672.97
2023-05-05T19:20:06.373Z,101683.41
2023-05-05T19:22:34.089Z,101681.00
2023-05-05T19:25:01.799Z,101692.84
2023-05-05T19:27:29.461Z,101680.00
2023-05-05T19:29:58.527Z,101681.50
2023-05-05T19:32:26.782Z,101684.19
2023-05-05T19:34:54.482Z,101676.06
2023-05-05T19:37:22.171Z,101683.56
2023-05-05T19:39:51.559Z,101686.28
2023-05-05T19:42:19.357Z,101678.19
2023-05-05T19:44:46.992Z,101669.84
2023-05-05T19:47:16.014Z,101672.75
2023-05-05T19:49:43.722Z,101674.28
2023-05-05T19:52:11.415Z,101681.66
2023-05-05T19:54:39.292Z,101683.66
2023-05-05T19:57:07.310Z,101666.94
2023-05-05T19:59:34.948Z,101668.53
2023-05-05T20:02:02.617Z,101661.03
2023-05-05T20:04:31.578Z,101660.50
2023-05-05T20:06:59.569Z,101648.63
2023-05-05T20:09:27.460Z,101644.50
2023-05-05T20:11:55.882Z,101592.00
2023-05-05T20:14:23.564Z,101617.59
2023-05-05T20:16:51.208Z,101634.03
2023-05-05T20:19:19.111Z,101632.66
2023-05-05T20:21:48.100Z,101630.38
2023-05-05T20:24:15.922Z,101628.84
2023-05-05T20:26:43.547Z,101616.41
2023-05-05T20:29:11.319Z,101620.00
2023-05-05T20:31:38.989Z,101619.38
2023-05-05T20:34:06.716Z,101591.69
2023-05-05T20:36:34.460Z,101599.19
2023-05-05T20:39:03.540Z,101596.97
2023-05-05T20:41:31.206Z,101596.22
2023-05-05T20:43:58.860Z,101602.34
2023-05-05T20:46:26.656Z,101590.47
2023-05-05T20:48:54.313Z,101603.09
2023-05-05T20:51:21.915Z,101599.66
2023-05-05T20:53:49.551Z,101605.03
2023-05-05T20:56:18.551Z,101602.38
2023-05-05T20:58:46.167Z,101610.06
2023-05-05T21:01:13.822Z,101614.50
2023-05-05T21:03:41.538Z,101622.41
2023-05-05T21:06:09.166Z,101615.53
2023-05-05T21:08:36.893Z,101615.50
2023-05-05T21:11:10.004Z,101621.50
2023-05-05T21:13:39.112Z,101602.38
2023-05-05T21:16:07.043Z,101626.72
2023-05-05T21:18:34.854Z,101621.56
2023-05-05T21:21:02.513Z,101627.84
2023-05-05T21:23:31.072Z,101616.53
2023-05-05T21:25:58.741Z,101607.25
2023-05-05T21:28:26.365Z,101615.66
2023-05-05T21:31:10.845Z,101622.50
2023-05-05T21:33:43.045Z,101612.31
2023-05-05T21:36:10.643Z,101615.72
2023-05-05T21:38:38.324Z,101608.63
2023-05-05T21:41:06.321Z,101621.72
2023-05-05T21:43:33.967Z,101614.84
2023-05-05T21:46:03.562Z,101608.16
2023-05-05T21:48:31.757Z,101607.03
2023-05-05T21:50:59.487Z,101611.69
2023-05-05T21:53:27.118Z,101614.00
2023-05-05T21:55:55.151Z,101619.41
2023-05-05T21:58:24.329Z,101616.84
2023-05-05T22:00:52.408Z,101611.59
2023-05-05T22:03:21.861Z,101617.53
2023-05-05T22:05:49.591Z,101608.13
2023-05-05T22:08:17.311Z,101610.75
2023-05-05T22:10:44.952Z,101607.31
2023-05-05T22:13:12.713Z,101615.13
2023-05-05T22:15:46.547Z,101608.13
2023-05-05T22:18:15.284Z,101610.97
2023-05-05T22:20:44.500Z,101616.06
2023-05-05T22:23:13.938Z,101619.63
2023-05-05T22:25:41.686Z,101614.16
2023-05-05T22:28:09.366Z,101615.75
2023-05-05T22:30:37.131Z,101603.16
2023-05-05T22:33:05.074Z,101614.13
2023-05-05T22:35:32.793Z,101618.28
2023-05-05T22:38:01.785Z,101605.56
2023-05-05T22:40:29.425Z,101615.13
2023-05-05T22:42:57.082Z,101615.22
2023-05-05T22:45:24.714Z,101611.50
2023-05-05T22:47:52.676Z,101614.03
2023-05-05T22:50:20.429Z,101616.09
2023-05-05T22:52:48.109Z,101620.13
2023-05-05T22:55:17.509Z,101623.13
2023-05-05T22:57:45.148Z,101614.41
2023-05-05T23:00:13.095Z,101612.69
2023-05-05T23:02:41.531Z,101602.34
2023-05-05T23:05:10.224Z,101622.06
2023-05-05T23:07:38.468Z,101619.41
2023-05-05T23:10:07.097Z,101611.06
2023-05-05T23:12:36.151Z,101617.09
2023-05-05T23:15:04.054Z,101623.09
2023-05-05T23:17:31.749Z,101627.34
2023-05-05T23:19:59.347Z,101620.56
2023-05-05T23:22:27.081Z,101620.41
2023-05-05T23:24:54.690Z,101621.34
2023-05-05T23:27:23.041Z,101612.59
2023-05-05T23:29:52.010Z,101625.56
2023-05-05T23:32:19.735Z,101616.19
2023-05-05T23:34:47.334Z,101619.56
2023-05-05T23:37:15.130Z,101616.06
2023-05-05T23:39:42.944Z,101621.31
2023-05-05T23:42:10.677Z,101625.53
2023-05-05T23:44:38.301Z,101623.13
2023-05-05T23:47:07.685Z,101624.84
2023-05-05T23:49:35.547Z,101616.16
2023-05-05T23:52:03.312Z,101612.78
2023-05-05T23:54:30.961Z,101616.13
2023-05-05T23:56:58.660Z,101606.69
2023-05-05T23:59:26.334Z,101617.94
